Aeroporto :
LOGIN :

Iscrizione | Disclaimer

   EN    FR    IT 

 










Sommario :    VFR   VFR Marginale   IFR   IFR Intensivo   IFR Molto Intensivo
Visibilità : 
Base nubi : 
>= 8 km
>= 3000ft
5 / 8 km
1000 / 3000 ft
1500m / 5 km
500 / 1000 ft
800 / 1500m
200 / 500 ft
< 800m
< 200 ft
Simboli :   Temporali  Nebbia  Neve Forte  Precipitazioni Forti  Vento > 20 kt
SIGMETs :   Varie  Temporali  Ghiacco  Turbolenza  Onda orograficha  Ceneri Vulcaniche






- Altitudine del aeroporto : 75 ft
- Codice IATA : YEO


EGDY - RNAS Yeovilton

ULTIMO METAR :
  • 241150Z AUTO 22013KT 9999 RA BKN016/// 11/10 Q1008

METARs OBSOLETI :
  • 241118Z 22012KT 7000 RA SCT010 OVC020 11/09 Q1009 TEMPO 3000 BKN006 RMK GRN TEMPO YLO1
  • 241050Z 22015KT 4500 -RA SCT010 OVC020 11/09 Q1009 TEMPO 3000 BKN006 RMK GRN TEMPO YLO1
  • 241020Z 22015KT 8000 -RA SCT012 OVC024 11/09 Q1009 TEMPO 3000 BKN006 RMK GRN TEMPO YLO1
  • 240950Z AUTO 22013KT 9999 RA FEW011/// BKN050/// 11/09 Q1010
  • 240921Z 22014G24KT 9999 -RA BKN012 11/10 Q1010 TEMPO 3000 BKN006 RMK GRN TEMPO YLO1

TAF TAF EGDY
Valido dal 24 a 12 ore il 24 a 21 ore UTC


241102Z 2412/2421 22015G25KT 4500 -RA SCT010 BKN020
PROB30
TEMPO 2412/2414 3000 +RA BKN006
BECMG 2414/2416 26015G25KT 9999 NSW BKN025
TEMPO 2416/2421 BKN018



MetMap, La meteo Aeronautica in un colpo d'occhio ! - Copyright ORBIFLY Dicembre 2007 - Disclaimer

ORBIFLY MET'MAP TEAM :

Programmazione e sviluppo : Alexandra Zaïnal
Concezione : Baudouin d'Aumeries
Aiuto per la programmazione : Marc-Olivier Méhu
Supporto tecnico e logistico : Manuel Goepfert
Aiuto per la traduzione : Arnaldo La Scala

Contatto : metmap@orbifly.com




FONTI E CREDITI :

   NOAA